sensor_id;sensor_type;location;lat;lon;timestamp;temperature;humidity
3792;DHT22;1911;53.768;11.474;2023-07-31T00:01:15;14.50;99.90
3792;DHT22;1911;53.768;11.474;2023-07-31T00:03:40;14.50;99.90
3792;DHT22;1911;53.768;11.474;2023-07-31T00:06:06;14.50;99.90
3792;DHT22;1911;53.768;11.474;2023-07-31T00:08:31;14.50;99.90
3792;DHT22;1911;53.768;11.474;2023-07-31T00:10:57;14.50;99.90
3792;DHT22;1911;53.768;11.474;2023-07-31T00:13:22;14.50;99.90
3792;DHT22;1911;53.768;11.474;2023-07-31T00:15:48;14.50;99.90
3792;DHT22;1911;53.768;11.474;2023-07-31T00:18:14;14.60;99.90
3792;DHT22;1911;53.768;11.474;2023-07-31T00:20:40;14.60;99.90
3792;DHT22;1911;53.768;11.474;2023-07-31T00:23:06;14.50;99.90
3792;DHT22;1911;53.768;11.474;2023-07-31T00:25:31;14.60;99.90
3792;DHT22;1911;53.768;11.474;2023-07-31T00:27:57;14.60;99.90
3792;DHT22;1911;53.768;11.474;2023-07-31T00:30:22;14.70;99.90
3792;DHT22;1911;53.768;11.474;2023-07-31T00:32:50;14.80;99.90
3792;DHT22;1911;53.768;11.474;2023-07-31T00:35:16;14.80;99.90
3792;DHT22;1911;53.768;11.474;2023-07-31T00:37:41;14.70;99.90
3792;DHT22;1911;53.768;11.474;2023-07-31T00:40:07;14.70;99.90
3792;DHT22;1911;53.768;11.474;2023-07-31T00:42:33;14.60;99.90
3792;DHT22;1911;53.768;11.474;2023-07-31T00:44:59;14.60;99.90
3792;DHT22;1911;53.768;11.474;2023-07-31T00:47:25;14.60;99.90
3792;DHT22;1911;53.768;11.474;2023-07-31T00:49:51;14.60;99.90
3792;DHT22;1911;53.768;11.474;2023-07-31T00:52:17;14.60;99.90
3792;DHT22;1911;53.768;11.474;2023-07-31T00:54:43;14.60;99.90
3792;DHT22;1911;53.768;11.474;2023-07-31T00:57:09;14.50;99.90
3792;DHT22;1911;53.768;11.474;2023-07-31T00:59:35;14.50;99.90
3792;DHT22;1911;53.768;11.474;2023-07-31T01:02:01;14.40;99.90
3792;DHT22;1911;53.768;11.474;2023-07-31T01:04:27;14.40;99.90
3792;DHT22;1911;53.768;11.474;2023-07-31T01:09:55;14.30;99.90
3792;DHT22;1911;53.768;11.474;2023-07-31T01:12:23;14.30;99.90
3792;DHT22;1911;53.768;11.474;2023-07-31T01:15:12;14.30;99.90
3792;DHT22;1911;53.768;11.474;2023-07-31T01:17:40;14.30;99.90
3792;DHT22;1911;53.768;11.474;2023-07-31T01:20:18;14.30;99.90
3792;DHT22;1911;53.768;11.474;2023-07-31T01:28:15;14.40;99.90
3792;DHT22;1911;53.768;11.474;2023-07-31T01:30:46;14.40;99.90
3792;DHT22;1911;53.768;11.474;2023-07-31T01:33:16;14.40;99.90
3792;DHT22;1911;53.768;11.474;2023-07-31T01:35:44;14.40;99.90
3792;DHT22;1911;53.768;11.474;2023-07-31T01:38:10;14.40;99.90
3792;DHT22;1911;53.768;11.474;2023-07-31T01:40:36;14.40;99.90
3792;DHT22;1911;53.768;11.474;2023-07-31T01:43:02;14.40;99.90
3792;DHT22;1911;53.768;11.474;2023-07-31T01:45:27;14.40;99.90
3792;DHT22;1911;53.768;11.474;2023-07-31T01:47:53;14.50;99.90
3792;DHT22;1911;53.768;11.474;2023-07-31T01:50:18;14.50;99.90
3792;DHT22;1911;53.768;11.474;2023-07-31T01:52:44;14.50;99.90
3792;DHT22;1911;53.768;11.474;2023-07-31T01:55:10;14.50;99.90
3792;DHT22;1911;53.768;11.474;2023-07-31T01:57:36;14.60;99.90
3792;DHT22;1911;53.768;11.474;2023-07-31T02:00:02;14.60;99.90
3792;DHT22;1911;53.768;11.474;2023-07-31T02:02:28;14.70;99.90
3792;DHT22;1911;53.768;11.474;2023-07-31T02:04:53;14.70;99.90
3792;DHT22;1911;53.768;11.474;2023-07-31T02:07:19;14.70;99.90
3792;DHT22;1911;53.768;11.474;2023-07-31T02:09:45;14.80;99.90
3792;DHT22;1911;53.768;11.474;2023-07-31T02:12:12;14.80;99.90
3792;DHT22;1911;53.768;11.474;2023-07-31T02:14:39;14.90;99.90
3792;DHT22;1911;53.768;11.474;2023-07-31T02:17:05;14.90;99.90
3792;DHT22;1911;53.768;11.474;2023-07-31T02:19:31;14.90;99.90
3792;DHT22;1911;53.768;11.474;2023-07-31T02:21:56;14.90;99.90
3792;DHT22;1911;53.768;11.474;2023-07-31T02:24:24;14.90;99.90
3792;DHT22;1911;53.768;11.474;2023-07-31T02:26:50;14.90;99.90
3792;DHT22;1911;53.768;11.474;2023-07-31T02:29:15;14.90;99.90
3792;DHT22;1911;53.768;11.474;2023-07-31T02:31:41;14.90;99.90
3792;DHT22;1911;53.768;11.474;2023-07-31T02:34:06;14.90;99.90
3792;DHT22;1911;53.768;11.474;2023-07-31T02:36:32;15.00;99.90
3792;DHT22;1911;53.768;11.474;2023-07-31T02:38:58;15.00;99.90
3792;DHT22;1911;53.768;11.474;2023-07-31T02:41:23;15.00;99.90
3792;DHT22;1911;53.768;11.474;2023-07-31T02:43:49;14.90;99.90
3792;DHT22;1911;53.768;11.474;2023-07-31T02:46:14;14.90;99.90
3792;DHT22;1911;53.768;11.474;2023-07-31T02:48:40;14.80;99.90
3792;DHT22;1911;53.768;11.474;2023-07-31T02:51:05;14.80;99.90
3792;DHT22;1911;53.768;11.474;2023-07-31T02:53:31;14.80;99.90
3792;DHT22;1911;53.768;11.474;2023-07-31T02:55:56;14.90;99.90
3792;DHT22;1911;53.768;11.474;2023-07-31T02:58:22;14.90;99.90
3792;DHT22;1911;53.768;11.474;2023-07-31T03:00:48;14.90;99.90
3792;DHT22;1911;53.768;11.474;2023-07-31T03:03:13;14.90;99.90
3792;DHT22;1911;53.768;11.474;2023-07-31T03:05:39;14.90;99.90
3792;DHT22;1911;53.768;11.474;2023-07-31T03:08:04;14.90;99.90
3792;DHT22;1911;53.768;11.474;2023-07-31T03:10:30;14.90;99.90
3792;DHT22;1911;53.768;11.474;2023-07-31T03:12:56;14.90;99.90
3792;DHT22;1911;53.768;11.474;2023-07-31T03:15:21;14.90;99.90
3792;DHT22;1911;53.768;11.474;2023-07-31T03:17:47;14.90;99.90
3792;DHT22;1911;53.768;11.474;2023-07-31T03:20:12;14.90;99.90
3792;DHT22;1911;53.768;11.474;2023-07-31T03:22:38;15.00;99.90
3792;DHT22;1911;53.768;11.474;2023-07-31T03:25:04;15.00;99.90
3792;DHT22;1911;53.768;11.474;2023-07-31T03:27:30;14.90;99.90
3792;DHT22;1911;53.768;11.474;2023-07-31T03:29:55;14.90;99.90
3792;DHT22;1911;53.768;11.474;2023-07-31T03:32:21;15.00;99.90
3792;DHT22;1911;53.768;11.474;2023-07-31T03:34:46;15.00;99.90
3792;DHT22;1911;53.768;11.474;2023-07-31T03:37:12;15.00;99.90
3792;DHT22;1911;53.768;11.474;2023-07-31T03:39:38;15.00;99.90
3792;DHT22;1911;53.768;11.474;2023-07-31T03:42:03;15.00;99.90
3792;DHT22;1911;53.768;11.474;2023-07-31T03:44:29;15.00;99.90
3792;DHT22;1911;53.768;11.474;2023-07-31T03:46:55;15.00;99.90
3792;DHT22;1911;53.768;11.474;2023-07-31T03:49:20;15.00;99.90
3792;DHT22;1911;53.768;11.474;2023-07-31T03:51:46;15.00;99.90
3792;DHT22;1911;53.768;11.474;2023-07-31T03:54:11;15.10;99.90
3792;DHT22;1911;53.768;11.474;2023-07-31T03:56:38;15.10;99.90
3792;DHT22;1911;53.768;11.474;2023-07-31T03:59:04;15.10;99.90
3792;DHT22;1911;53.768;11.474;2023-07-31T04:01:30;15.10;99.90
3792;DHT22;1911;53.768;11.474;2023-07-31T04:03:55;15.20;99.90
3792;DHT22;1911;53.768;11.474;2023-07-31T04:06:21;15.20;99.90
3792;DHT22;1911;53.768;11.474;2023-07-31T04:08:47;15.20;99.90
3792;DHT22;1911;53.768;11.474;2023-07-31T04:11:12;15.20;99.90
3792;DHT22;1911;53.768;11.474;2023-07-31T04:13:38;15.20;99.90
3792;DHT22;1911;53.768;11.474;2023-07-31T04:16:04;15.20;99.90
3792;DHT22;1911;53.768;11.474;2023-07-31T04:18:30;15.20;99.90
3792;DHT22;1911;53.768;11.474;2023-07-31T04:20:56;15.20;99.90
3792;DHT22;1911;53.768;11.474;2023-07-31T04:23:24;15.20;99.90
3792;DHT22;1911;53.768;11.474;2023-07-31T04:25:49;15.20;99.90
3792;DHT22;1911;53.768;11.474;2023-07-31T04:28:15;15.20;99.90
3792;DHT22;1911;53.768;11.474;2023-07-31T04:30:40;15.20;99.90
3792;DHT22;1911;53.768;11.474;2023-07-31T04:33:06;15.20;99.90
3792;DHT22;1911;53.768;11.474;2023-07-31T04:35:32;15.30;99.90
3792;DHT22;1911;53.768;11.474;2023-07-31T04:37:57;15.30;99.90
3792;DHT22;1911;53.768;11.474;2023-07-31T04:40:24;15.40;99.90
3792;DHT22;1911;53.768;11.474;2023-07-31T04:42:50;15.40;99.90
3792;DHT22;1911;53.768;11.474;2023-07-31T04:45:15;15.40;99.90
3792;DHT22;1911;53.768;11.474;2023-07-31T04:47:41;15.40;99.90
3792;DHT22;1911;53.768;11.474;2023-07-31T04:50:07;15.40;99.90
3792;DHT22;1911;53.768;11.474;2023-07-31T04:52:33;15.50;99.90
3792;DHT22;1911;53.768;11.474;2023-07-31T04:54:58;15.50;99.90
3792;DHT22;1911;53.768;11.474;2023-07-31T04:57:24;15.50;99.90
3792;DHT22;1911;53.768;11.474;2023-07-31T04:59:49;15.50;99.90
3792;DHT22;1911;53.768;11.474;2023-07-31T05:02:15;15.60;99.90
3792;DHT22;1911;53.768;11.474;2023-07-31T05:04:40;15.60;99.90
3792;DHT22;1911;53.768;11.474;2023-07-31T05:07:06;15.60;99.90
3792;DHT22;1911;53.768;11.474;2023-07-31T05:09:31;15.60;99.90
3792;DHT22;1911;53.768;11.474;2023-07-31T05:11:57;15.70;99.90
3792;DHT22;1911;53.768;11.474;2023-07-31T05:14:23;15.80;99.90
3792;DHT22;1911;53.768;11.474;2023-07-31T05:16:48;15.70;99.90
3792;DHT22;1911;53.768;11.474;2023-07-31T05:19:14;15.80;99.90
3792;DHT22;1911;53.768;11.474;2023-07-31T05:21:40;15.80;99.90
3792;DHT22;1911;53.768;11.474;2023-07-31T05:24:05;15.80;99.90
3792;DHT22;1911;53.768;11.474;2023-07-31T05:26:31;15.80;99.90
3792;DHT22;1911;53.768;11.474;2023-07-31T05:28:57;15.80;99.90
3792;DHT22;1911;53.768;11.474;2023-07-31T05:31:23;15.90;99.90
3792;DHT22;1911;53.768;11.474;2023-07-31T05:33:50;15.90;99.90
3792;DHT22;1911;53.768;11.474;2023-07-31T05:36:16;16.00;99.90
3792;DHT22;1911;53.768;11.474;2023-07-31T05:38:42;15.90;99.90
3792;DHT22;1911;53.768;11.474;2023-07-31T05:41:10;16.00;99.90
3792;DHT22;1911;53.768;11.474;2023-07-31T05:43:36;15.90;99.90
3792;DHT22;1911;53.768;11.474;2023-07-31T05:46:02;15.90;99.90
3792;DHT22;1911;53.768;11.474;2023-07-31T05:48:27;15.90;99.90
3792;DHT22;1911;53.768;11.474;2023-07-31T05:50:53;15.90;99.90
3792;DHT22;1911;53.768;11.474;2023-07-31T05:53:19;16.00;99.90
3792;DHT22;1911;53.768;11.474;2023-07-31T05:55:44;15.90;99.90
3792;DHT22;1911;53.768;11.474;2023-07-31T05:58:10;15.90;99.90
3792;DHT22;1911;53.768;11.474;2023-07-31T06:00:35;15.90;99.90
3792;DHT22;1911;53.768;11.474;2023-07-31T06:03:01;16.00;99.90
3792;DHT22;1911;53.768;11.474;2023-07-31T06:05:27;16.00;99.90
3792;DHT22;1911;53.768;11.474;2023-07-31T06:07:55;16.10;99.90
3792;DHT22;1911;53.768;11.474;2023-07-31T06:10:20;16.10;99.90
3792;DHT22;1911;53.768;11.474;2023-07-31T06:12:46;16.20;99.90
3792;DHT22;1911;53.768;11.474;2023-07-31T06:15:12;16.20;99.90
3792;DHT22;1911;53.768;11.474;2023-07-31T06:17:45;16.30;99.90
3792;DHT22;1911;53.768;11.474;2023-07-31T06:20:13;16.30;99.90
3792;DHT22;1911;53.768;11.474;2023-07-31T06:22:41;16.30;99.90
3792;DHT22;1911;53.768;11.474;2023-07-31T06:25:11;16.40;99.90
3792;DHT22;1911;53.768;11.474;2023-07-31T06:27:39;16.40;99.90
3792;DHT22;1911;53.768;11.474;2023-07-31T06:30:05;16.50;99.90
3792;DHT22;1911;53.768;11.474;2023-07-31T06:32:32;16.50;99.90
3792;DHT22;1911;53.768;11.474;2023-07-31T06:34:57;16.50;99.90
3792;DHT22;1911;53.768;11.474;2023-07-31T06:37:23;16.50;99.90
3792;DHT22;1911;53.768;11.474;2023-07-31T06:39:48;16.50;99.90
3792;DHT22;1911;53.768;11.474;2023-07-31T06:42:14;16.60;99.90
3792;DHT22;1911;53.768;11.474;2023-07-31T06:44:39;16.60;99.90
3792;DHT22;1911;53.768;11.474;2023-07-31T06:47:05;16.60;99.90
3792;DHT22;1911;53.768;11.474;2023-07-31T06:49:31;16.60;99.90
3792;DHT22;1911;53.768;11.474;2023-07-31T06:51:56;16.60;99.90
3792;DHT22;1911;53.768;11.474;2023-07-31T06:54:22;16.70;99.90
3792;DHT22;1911;53.768;11.474;2023-07-31T06:56:47;16.70;99.90
3792;DHT22;1911;53.768;11.474;2023-07-31T06:59:13;16.70;99.90
3792;DHT22;1911;53.768;11.474;2023-07-31T07:01:39;16.70;99.90
3792;DHT22;1911;53.768;11.474;2023-07-31T07:04:04;16.60;99.90
3792;DHT22;1911;53.768;11.474;2023-07-31T07:06:30;16.60;99.90
3792;DHT22;1911;53.768;11.474;2023-07-31T07:08:55;16.60;99.90
3792;DHT22;1911;53.768;11.474;2023-07-31T07:11:21;16.60;99.90
3792;DHT22;1911;53.768;11.474;2023-07-31T07:13:46;16.60;99.90
3792;DHT22;1911;53.768;11.474;2023-07-31T07:16:12;16.60;99.90
3792;DHT22;1911;53.768;11.474;2023-07-31T07:18:37;16.60;99.90
3792;DHT22;1911;53.768;11.474;2023-07-31T07:21:03;16.60;99.90
3792;DHT22;1911;53.768;11.474;2023-07-31T07:23:29;16.70;99.90
3792;DHT22;1911;53.768;11.474;2023-07-31T07:25:54;16.70;99.90
3792;DHT22;1911;53.768;11.474;2023-07-31T07:28:20;16.80;99.90
3792;DHT22;1911;53.768;11.474;2023-07-31T07:30:51;16.80;99.90
3792;DHT22;1911;53.768;11.474;2023-07-31T07:33:18;16.70;99.90
3792;DHT22;1911;53.768;11.474;2023-07-31T07:35:44;16.70;99.90
3792;DHT22;1911;53.768;11.474;2023-07-31T07:38:09;16.70;99.90
3792;DHT22;1911;53.768;11.474;2023-07-31T07:40:41;16.80;99.90
3792;DHT22;1911;53.768;11.474;2023-07-31T07:43:06;16.90;99.90
3792;DHT22;1911;53.768;11.474;2023-07-31T07:45:32;17.00;99.90
3792;DHT22;1911;53.768;11.474;2023-07-31T07:47:58;17.10;99.90
3792;DHT22;1911;53.768;11.474;2023-07-31T07:50:24;17.10;99.90
3792;DHT22;1911;53.768;11.474;2023-07-31T07:52:50;17.10;99.90
3792;DHT22;1911;53.768;11.474;2023-07-31T07:55:15;17.00;99.90
3792;DHT22;1911;53.768;11.474;2023-07-31T07:57:41;17.00;99.90
3792;DHT22;1911;53.768;11.474;2023-07-31T08:00:07;17.00;99.90
3792;DHT22;1911;53.768;11.474;2023-07-31T08:02:33;17.00;99.90
3792;DHT22;1911;53.768;11.474;2023-07-31T08:04:58;17.10;99.90
3792;DHT22;1911;53.768;11.474;2023-07-31T08:07:24;17.20;99.90
3792;DHT22;1911;53.768;11.474;2023-07-31T08:09:49;17.20;99.90
3792;DHT22;1911;53.768;11.474;2023-07-31T08:12:15;17.20;99.90
3792;DHT22;1911;53.768;11.474;2023-07-31T08:14:41;17.20;99.90
3792;DHT22;1911;53.768;11.474;2023-07-31T08:17:06;17.30;99.90
3792;DHT22;1911;53.768;11.474;2023-07-31T08:19:32;17.30;99.90
3792;DHT22;1911;53.768;11.474;2023-07-31T08:21:57;17.30;99.90
3792;DHT22;1911;53.768;11.474;2023-07-31T08:24:23;17.30;99.90
3792;DHT22;1911;53.768;11.474;2023-07-31T08:26:49;17.30;99.90
3792;DHT22;1911;53.768;11.474;2023-07-31T08:29:14;17.30;99.90
3792;DHT22;1911;53.768;11.474;2023-07-31T08:31:40;17.40;99.90
3792;DHT22;1911;53.768;11.474;2023-07-31T08:34:05;17.40;99.90
3792;DHT22;1911;53.768;11.474;2023-07-31T08:36:31;17.40;99.90
3792;DHT22;1911;53.768;11.474;2023-07-31T08:38:56;17.50;99.90
3792;DHT22;1911;53.768;11.474;2023-07-31T08:41:22;17.50;99.90
3792;DHT22;1911;53.768;11.474;2023-07-31T08:43:49;17.50;99.90
3792;DHT22;1911;53.768;11.474;2023-07-31T08:46:15;17.50;99.90
3792;DHT22;1911;53.768;11.474;2023-07-31T08:48:44;17.50;99.90
3792;DHT22;1911;53.768;11.474;2023-07-31T08:51:11;17.70;99.90
3792;DHT22;1911;53.768;11.474;2023-07-31T08:53:36;17.80;99.90
3792;DHT22;1911;53.768;11.474;2023-07-31T08:56:02;17.90;99.90
3792;DHT22;1911;53.768;11.474;2023-07-31T08:58:31;17.90;99.90
3792;DHT22;1911;53.768;11.474;2023-07-31T09:00:58;18.00;99.90
3792;DHT22;1911;53.768;11.474;2023-07-31T09:03:26;18.30;99.90
3792;DHT22;1911;53.768;11.474;2023-07-31T09:05:52;18.50;99.90
3792;DHT22;1911;53.768;11.474;2023-07-31T09:08:21;18.50;99.90
3792;DHT22;1911;53.768;11.474;2023-07-31T09:10:47;18.60;99.90
3792;DHT22;1911;53.768;11.474;2023-07-31T09:13:16;18.60;99.90
3792;DHT22;1911;53.768;11.474;2023-07-31T09:15:44;18.50;99.90
3792;DHT22;1911;53.768;11.474;2023-07-31T09:18:10;18.60;99.90
3792;DHT22;1911;53.768;11.474;2023-07-31T09:20:36;18.60;99.90
3792;DHT22;1911;53.768;11.474;2023-07-31T09:23:12;18.70;99.90
3792;DHT22;1911;53.768;11.474;2023-07-31T09:25:40;18.80;99.90
3792;DHT22;1911;53.768;11.474;2023-07-31T09:28:07;18.90;99.90
3792;DHT22;1911;53.768;11.474;2023-07-31T09:30:48;18.90;99.90
3792;DHT22;1911;53.768;11.474;2023-07-31T09:33:14;18.80;99.90
3792;DHT22;1911;53.768;11.474;2023-07-31T09:35:40;18.70;99.90
3792;DHT22;1911;53.768;11.474;2023-07-31T09:38:13;18.70;99.90
3792;DHT22;1911;53.768;11.474;2023-07-31T09:40:42;18.80;99.90
3792;DHT22;1911;53.768;11.474;2023-07-31T09:43:12;18.90;99.90
3792;DHT22;1911;53.768;11.474;2023-07-31T09:45:42;19.00;99.90
3792;DHT22;1911;53.768;11.474;2023-07-31T09:48:15;19.10;99.90
3792;DHT22;1911;53.768;11.474;2023-07-31T09:50:43;19.20;99.90
3792;DHT22;1911;53.768;11.474;2023-07-31T09:53:09;19.20;99.90
3792;DHT22;1911;53.768;11.474;2023-07-31T09:55:36;19.20;99.90
3792;DHT22;1911;53.768;11.474;2023-07-31T09:58:12;19.50;99.90
3792;DHT22;1911;53.768;11.474;2023-07-31T10:00:38;19.50;99.90
3792;DHT22;1911;53.768;11.474;2023-07-31T10:03:06;19.40;99.90
3792;DHT22;1911;53.768;11.474;2023-07-31T10:05:35;19.30;99.90
3792;DHT22;1911;53.768;11.474;2023-07-31T10:08:01;19.10;99.90
3792;DHT22;1911;53.768;11.474;2023-07-31T10:10:27;18.80;99.90
3792;DHT22;1911;53.768;11.474;2023-07-31T10:12:54;18.60;99.90
3792;DHT22;1911;53.768;11.474;2023-07-31T10:15:21;18.40;99.90
3792;DHT22;1911;53.768;11.474;2023-07-31T10:17:48;18.20;99.90
3792;DHT22;1911;53.768;11.474;2023-07-31T10:20:15;18.00;99.90
3792;DHT22;1911;53.768;11.474;2023-07-31T10:22:44;17.80;99.90
3792;DHT22;1911;53.768;11.474;2023-07-31T10:25:12;17.60;99.90
3792;DHT22;1911;53.768;11.474;2023-07-31T10:27:39;17.50;99.90
3792;DHT22;1911;53.768;11.474;2023-07-31T10:30:07;17.40;99.90
3792;DHT22;1911;53.768;11.474;2023-07-31T10:32:34;17.40;99.90
3792;DHT22;1911;53.768;11.474;2023-07-31T10:35:02;17.50;99.90
3792;DHT22;1911;53.768;11.474;2023-07-31T10:37:31;17.60;99.90
3792;DHT22;1911;53.768;11.474;2023-07-31T10:42:33;17.90;99.90
3792;DHT22;1911;53.768;11.474;2023-07-31T10:45:05;17.90;99.90
3792;DHT22;1911;53.768;11.474;2023-07-31T10:47:36;17.90;99.90
3792;DHT22;1911;53.768;11.474;2023-07-31T10:50:22;17.80;99.90
3792;DHT22;1911;53.768;11.474;2023-07-31T10:52:51;17.70;99.90
3792;DHT22;1911;53.768;11.474;2023-07-31T10:57:49;17.60;99.90
3792;DHT22;1911;53.768;11.474;2023-07-31T11:00:33;17.60;99.90
3792;DHT22;1911;53.768;11.474;2023-07-31T11:03:19;17.70;99.90
3792;DHT22;1911;53.768;11.474;2023-07-31T11:06:02;17.60;99.90
3792;DHT22;1911;53.768;11.474;2023-07-31T11:08:32;17.60;99.90
3792;DHT22;1911;53.768;11.474;2023-07-31T11:13:31;17.30;99.90
3792;DHT22;1911;53.768;11.474;2023-07-31T11:15:57;17.30;99.90
3792;DHT22;1911;53.768;11.474;2023-07-31T11:18:23;17.30;99.90
3792;DHT22;1911;53.768;11.474;2023-07-31T11:20:49;17.30;99.90
3792;DHT22;1911;53.768;11.474;2023-07-31T11:23:17;17.30;99.90
3792;DHT22;1911;53.768;11.474;2023-07-31T11:25:43;17.40;99.90
3792;DHT22;1911;53.768;11.474;2023-07-31T11:28:17;17.50;99.90
3792;DHT22;1911;53.768;11.474;2023-07-31T11:30:44;17.50;99.90
3792;DHT22;1911;53.768;11.474;2023-07-31T11:33:12;17.50;99.90
3792;DHT22;1911;53.768;11.474;2023-07-31T11:35:48;17.50;99.90
3792;DHT22;1911;53.768;11.474;2023-07-31T11:38:31;17.60;99.90
3792;DHT22;1911;53.768;11.474;2023-07-31T11:41:00;17.60;99.90
3792;DHT22;1911;53.768;11.474;2023-07-31T11:43:28;17.50;99.90
3792;DHT22;1911;53.768;11.474;2023-07-31T11:45:56;17.40;99.90
3792;DHT22;1911;53.768;11.474;2023-07-31T11:48:29;17.40;99.90
3792;DHT22;1911;53.768;11.474;2023-07-31T11:51:01;17.30;99.90
3792;DHT22;1911;53.768;11.474;2023-07-31T11:56:04;17.40;99.90
3792;DHT22;1911;53.768;11.474;2023-07-31T11:58:31;17.50;99.90
3792;DHT22;1911;53.768;11.474;2023-07-31T12:00:59;17.50;99.90
3792;DHT22;1911;53.768;11.474;2023-07-31T12:03:25;17.60;99.90
3792;DHT22;1911;53.768;11.474;2023-07-31T12:05:53;17.60;99.90
3792;DHT22;1911;53.768;11.474;2023-07-31T12:08:21;17.60;99.90
3792;DHT22;1911;53.768;11.474;2023-07-31T12:10:50;17.60;99.90
3792;DHT22;1911;53.768;11.474;2023-07-31T12:13:25;17.70;99.90
3792;DHT22;1911;53.768;11.474;2023-07-31T12:15:56;17.70;99.90
3792;DHT22;1911;53.768;11.474;2023-07-31T12:18:24;17.70;99.90
3792;DHT22;1911;53.768;11.474;2023-07-31T12:24:20;17.80;99.90
3792;DHT22;1911;53.768;11.474;2023-07-31T12:26:49;17.80;99.90
3792;DHT22;1911;53.768;11.474;2023-07-31T12:29:17;17.90;99.90
3792;DHT22;1911;53.768;11.474;2023-07-31T12:31:45;18.00;99.90
3792;DHT22;1911;53.768;11.474;2023-07-31T12:34:18;18.00;99.90
3792;DHT22;1911;53.768;11.474;2023-07-31T12:36:44;18.10;99.90
3792;DHT22;1911;53.768;11.474;2023-07-31T12:39:10;18.20;99.90
3792;DHT22;1911;53.768;11.474;2023-07-31T12:41:35;18.20;99.90
3792;DHT22;1911;53.768;11.474;2023-07-31T12:44:01;18.30;99.90
3792;DHT22;1911;53.768;11.474;2023-07-31T12:46:28;18.30;99.90
3792;DHT22;1911;53.768;11.474;2023-07-31T12:48:54;18.20;99.90
3792;DHT22;1911;53.768;11.474;2023-07-31T12:51:20;18.30;99.90
3792;DHT22;1911;53.768;11.474;2023-07-31T12:53:46;18.40;99.90
3792;DHT22;1911;53.768;11.474;2023-07-31T12:56:11;18.40;99.90
3792;DHT22;1911;53.768;11.474;2023-07-31T12:58:37;18.40;99.90
3792;DHT22;1911;53.768;11.474;2023-07-31T13:01:03;18.10;99.90
3792;DHT22;1911;53.768;11.474;2023-07-31T13:03:28;17.50;99.90
3792;DHT22;1911;53.768;11.474;2023-07-31T13:05:54;16.60;99.90
3792;DHT22;1911;53.768;11.474;2023-07-31T13:08:20;15.90;99.90
3792;DHT22;1911;53.768;11.474;2023-07-31T13:10:46;15.60;99.90
3792;DHT22;1911;53.768;11.474;2023-07-31T13:13:11;15.50;99.90
3792;DHT22;1911;53.768;11.474;2023-07-31T13:15:37;15.50;99.90
3792;DHT22;1911;53.768;11.474;2023-07-31T13:18:03;15.50;99.90
3792;DHT22;1911;53.768;11.474;2023-07-31T13:20:28;15.80;99.90
3792;DHT22;1911;53.768;11.474;2023-07-31T13:22:54;15.90;99.90
3792;DHT22;1911;53.768;11.474;2023-07-31T13:25:19;15.80;99.90
3792;DHT22;1911;53.768;11.474;2023-07-31T13:27:45;15.70;99.90
3792;DHT22;1911;53.768;11.474;2023-07-31T13:30:13;16.00;99.90
3792;DHT22;1911;53.768;11.474;2023-07-31T13:32:38;16.10;99.90
3792;DHT22;1911;53.768;11.474;2023-07-31T13:35:24;16.30;99.90
3792;DHT22;1911;53.768;11.474;2023-07-31T13:37:53;16.50;99.90
3792;DHT22;1911;53.768;11.474;2023-07-31T13:40:18;16.40;99.90
3792;DHT22;1911;53.768;11.474;2023-07-31T13:42:46;16.30;99.90
3792;DHT22;1911;53.768;11.474;2023-07-31T13:45:14;16.00;99.90
3792;DHT22;1911;53.768;11.474;2023-07-31T16:08:56;15.50;99.90
3792;DHT22;1911;53.768;11.474;2023-07-31T16:59:50;15.30;99.90
3792;DHT22;1911;53.768;11.474;2023-07-31T18:56:19;17.20;99.90
3792;DHT22;1911;53.768;11.474;2023-07-31T19:02:57;17.20;99.90
3792;DHT22;1911;53.768;11.474;2023-07-31T19:09:10;17.20;99.90
3792;DHT22;1911;53.768;11.474;2023-07-31T19:29:21;17.20;99.90
3792;DHT22;1911;53.768;11.474;2023-07-31T19:35:57;17.30;99.90
3792;DHT22;1911;53.768;11.474;2023-07-31T19:48:33;17.20;99.90
3792;DHT22;1911;53.768;11.474;2023-07-31T19:51:41;17.20;99.90
3792;DHT22;1911;53.768;11.474;2023-07-31T19:54:09;17.20;99.90
3792;DHT22;1911;53.768;11.474;2023-07-31T19:56:35;17.20;99.90
3792;DHT22;1911;53.768;11.474;2023-07-31T19:59:08;17.20;99.90
3792;DHT22;1911;53.768;11.474;2023-07-31T20:01:36;17.20;99.90
3792;DHT22;1911;53.768;11.474;2023-07-31T20:04:02;17.20;99.90
3792;DHT22;1911;53.768;11.474;2023-07-31T20:06:29;17.10;99.90
3792;DHT22;1911;53.768;11.474;2023-07-31T20:08:55;17.00;99.90
3792;DHT22;1911;53.768;11.474;2023-07-31T20:11:23;17.00;99.90
3792;DHT22;1911;53.768;11.474;2023-07-31T20:13:48;17.00;99.90
3792;DHT22;1911;53.768;11.474;2023-07-31T20:16:17;17.00;99.90
3792;DHT22;1911;53.768;11.474;2023-07-31T20:18:43;17.00;99.90
3792;DHT22;1911;53.768;11.474;2023-07-31T20:21:09;17.10;99.90
3792;DHT22;1911;53.768;11.474;2023-07-31T20:23:37;17.10;99.90
3792;DHT22;1911;53.768;11.474;2023-07-31T20:26:02;17.10;99.90
3792;DHT22;1911;53.768;11.474;2023-07-31T20:28:28;17.10;99.90
3792;DHT22;1911;53.768;11.474;2023-07-31T20:30:54;17.00;99.90
3792;DHT22;1911;53.768;11.474;2023-07-31T20:33:19;17.00;99.90
3792;DHT22;1911;53.768;11.474;2023-07-31T20:35:45;17.10;99.90
3792;DHT22;1911;53.768;11.474;2023-07-31T20:38:10;17.10;99.90
3792;DHT22;1911;53.768;11.474;2023-07-31T20:40:36;17.10;99.90
3792;DHT22;1911;53.768;11.474;2023-07-31T20:43:01;17.10;99.90
3792;DHT22;1911;53.768;11.474;2023-07-31T20:45:28;17.10;99.90
3792;DHT22;1911;53.768;11.474;2023-07-31T20:47:54;17.10;99.90
3792;DHT22;1911;53.768;11.474;2023-07-31T20:50:20;17.00;99.90
3792;DHT22;1911;53.768;11.474;2023-07-31T20:52:46;17.00;99.90
3792;DHT22;1911;53.768;11.474;2023-07-31T20:55:11;17.00;99.90
3792;DHT22;1911;53.768;11.474;2023-07-31T20:57:37;17.00;99.90
3792;DHT22;1911;53.768;11.474;2023-07-31T21:00:04;17.00;99.90
3792;DHT22;1911;53.768;11.474;2023-07-31T21:02:30;17.10;99.90
3792;DHT22;1911;53.768;11.474;2023-07-31T21:04:55;17.10;99.90
3792;DHT22;1911;53.768;11.474;2023-07-31T21:07:21;17.20;99.90
3792;DHT22;1911;53.768;11.474;2023-07-31T21:09:47;17.20;99.90
3792;DHT22;1911;53.768;11.474;2023-07-31T21:12:13;17.20;99.90
3792;DHT22;1911;53.768;11.474;2023-07-31T21:14:41;17.20;99.90
3792;DHT22;1911;53.768;11.474;2023-07-31T21:17:07;17.30;99.90
3792;DHT22;1911;53.768;11.474;2023-07-31T21:19:33;17.20;99.90
3792;DHT22;1911;53.768;11.474;2023-07-31T21:21:59;17.20;99.90
3792;DHT22;1911;53.768;11.474;2023-07-31T21:24:24;17.10;99.90
3792;DHT22;1911;53.768;11.474;2023-07-31T21:26:50;17.20;99.90
3792;DHT22;1911;53.768;11.474;2023-07-31T21:29:15;17.20;99.90
3792;DHT22;1911;53.768;11.474;2023-07-31T21:31:41;17.20;99.90
3792;DHT22;1911;53.768;11.474;2023-07-31T21:34:06;17.20;99.90
3792;DHT22;1911;53.768;11.474;2023-07-31T21:36:32;17.20;99.90
3792;DHT22;1911;53.768;11.474;2023-07-31T21:38:58;17.10;99.90
3792;DHT22;1911;53.768;11.474;2023-07-31T21:41:23;17.10;99.90
3792;DHT22;1911;53.768;11.474;2023-07-31T21:43:49;17.20;99.90
3792;DHT22;1911;53.768;11.474;2023-07-31T21:46:15;17.20;99.90
3792;DHT22;1911;53.768;11.474;2023-07-31T21:48:40;17.10;99.90